createdAt,value
2022-12-03T00:01:25.694Z,15.80
2022-12-03T00:06:19.850Z,13.15
2022-12-03T00:11:13.336Z,13.25
2022-12-03T00:16:07.597Z,14.48
2022-12-03T00:21:01.612Z,13.27
2022-12-03T00:25:55.760Z,13.52
2022-12-03T00:30:50.433Z,12.15
2022-12-03T00:35:44.127Z,15.48
2022-12-03T00:40:38.288Z,12.63
2022-12-03T00:45:31.994Z,12.57
2022-12-03T00:50:26.079Z,12.80
2022-12-03T00:55:19.940Z,12.55
2022-12-03T01:00:16.323Z,11.63
2022-12-03T01:05:11.803Z,14.65
2022-12-03T01:10:08.154Z,11.57
2022-12-03T01:15:02.446Z,12.13
2022-12-03T01:19:56.510Z,12.23
2022-12-03T01:24:51.052Z,13.40
2022-12-03T01:29:45.174Z,14.27
2022-12-03T01:34:40.669Z,15.23
2022-12-03T01:39:39.129Z,15.32
2022-12-03T01:44:36.822Z,19.75
2022-12-03T01:49:43.675Z,30.60
2022-12-03T01:54:41.220Z,18.70
2022-12-03T01:59:38.211Z,15.95
2022-12-03T02:04:34.607Z,12.77
2022-12-03T02:09:30.536Z,11.85
2022-12-03T02:14:27.077Z,13.40
2022-12-03T02:19:30.227Z,11.23
2022-12-03T02:25:15.819Z,11.60
2022-12-03T02:30:14.180Z,11.18
2022-12-03T02:40:16.038Z,10.65
2022-12-03T02:45:18.483Z,13.10
2022-12-03T02:50:13.621Z,13.20
2022-12-03T02:55:07.571Z,14.55
2022-12-03T03:00:01.623Z,12.63
2022-12-03T03:04:56.420Z,11.25
2022-12-03T03:09:50.371Z,10.68
2022-12-03T03:14:44.561Z,10.48
2022-12-03T03:19:38.762Z,13.48
2022-12-03T03:24:31.856Z,11.00
2022-12-03T03:29:25.334Z,11.65
2022-12-03T03:34:19.316Z,11.70
2022-12-03T03:39:12.696Z,12.02
2022-12-03T03:44:07.470Z,10.82
2022-12-03T03:49:01.916Z,11.75
2022-12-03T03:53:56.465Z,10.88
2022-12-03T03:58:50.077Z,13.77
2022-12-03T04:03:44.536Z,11.40
2022-12-03T04:08:38.291Z,11.80
2022-12-03T04:13:32.099Z,11.98
2022-12-03T04:18:43.533Z,11.70
2022-12-03T04:23:37.148Z,12.70
2022-12-03T04:28:49.619Z,12.25
2022-12-03T04:34:21.229Z,12.02
2022-12-03T04:39:14.992Z,12.88
2022-12-03T04:44:26.541Z,12.60
2022-12-03T04:49:20.509Z,13.50
2022-12-03T04:54:13.600Z,12.68
2022-12-03T04:59:11.318Z,13.10
2022-12-03T05:04:07.481Z,13.98
2022-12-03T05:09:01.444Z,12.48
2022-12-03T05:13:55.392Z,14.00
2022-12-03T05:18:49.750Z,13.68
2022-12-03T05:23:43.031Z,12.82
2022-12-03T05:28:36.686Z,15.68
2022-12-03T05:33:30.583Z,14.48
2022-12-03T05:38:24.401Z,13.25
2022-12-03T05:43:18.143Z,14.90
2022-12-03T05:48:12.997Z,14.93
2022-12-03T05:53:06.363Z,15.68
2022-12-03T05:57:59.598Z,16.25
2022-12-03T06:02:53.358Z,13.55
2022-12-03T06:07:48.076Z,13.98
2022-12-03T06:12:42.082Z,15.07
2022-12-03T06:17:36.318Z,15.02
2022-12-03T06:22:30.241Z,13.98
2022-12-03T06:27:24.654Z,17.50
2022-12-03T06:32:18.660Z,14.85
2022-12-03T06:37:11.954Z,15.02
2022-12-03T06:42:06.173Z,15.95
2022-12-03T06:47:00.107Z,21.92
2022-12-03T06:51:53.739Z,16.95
2022-12-03T06:56:47.726Z,17.10
2022-12-03T07:01:40.890Z,18.30
2022-12-03T07:06:34.752Z,16.00
2022-12-03T07:11:33.885Z,14.38
2022-12-03T07:16:27.510Z,16.33
2022-12-03T07:21:21.457Z,15.60
2022-12-03T07:26:14.881Z,14.48
2022-12-03T07:31:08.427Z,14.93
2022-12-03T07:36:02.503Z,16.33
2022-12-03T07:40:56.499Z,18.70
2022-12-03T07:45:50.972Z,15.95
2022-12-03T07:50:44.684Z,18.08
2022-12-03T07:55:38.414Z,17.63
2022-12-03T08:00:32.206Z,20.27
2022-12-03T08:05:27.599Z,16.17
2022-12-03T08:10:21.578Z,16.33
2022-12-03T08:15:21.761Z,19.88
2022-12-03T08:20:23.215Z,22.08
2022-12-03T08:25:27.460Z,19.58
2022-12-03T08:30:21.402Z,28.00
2022-12-03T08:35:33.897Z,19.02
2022-12-03T08:40:40.642Z,17.02
2022-12-03T08:45:40.509Z,30.83
2022-12-03T08:51:14.036Z,21.40
2022-12-03T08:56:41.010Z,67.45
2022-12-03T09:01:44.341Z,28.10
2022-12-03T09:06:38.477Z,19.15
2022-12-03T09:11:32.459Z,19.92
2022-12-03T09:16:26.937Z,22.15
2022-12-03T09:21:21.066Z,20.70
2022-12-03T09:26:15.005Z,17.30
2022-12-03T09:31:09.394Z,19.35
2022-12-03T09:36:03.328Z,19.25
2022-12-03T09:40:57.646Z,18.63
2022-12-03T09:45:51.202Z,18.63
2022-12-03T09:50:45.447Z,19.50
2022-12-03T09:55:38.992Z,15.40
2022-12-03T10:00:32.293Z,15.98
2022-12-03T10:05:26.108Z,17.35
2022-12-03T10:10:22.534Z,17.45
2022-12-03T10:15:19.413Z,15.32
2022-12-03T10:20:13.977Z,14.25
2022-12-03T10:25:32.506Z,13.93
2022-12-03T10:30:27.534Z,16.45
2022-12-03T10:35:38.745Z,14.90
2022-12-03T10:40:43.687Z,12.95
2022-12-03T10:45:37.357Z,23.95
2022-12-03T10:50:31.346Z,15.63
2022-12-03T10:55:25.221Z,115.22
2022-12-03T11:00:21.081Z,17.58
2022-12-03T11:05:17.935Z,23.33
2022-12-03T11:10:16.874Z,12.60
2022-12-03T11:15:17.850Z,13.37
2022-12-03T11:20:25.815Z,12.52
2022-12-03T11:25:25.185Z,13.50
2022-12-03T11:30:57.473Z,13.25
2022-12-03T11:36:05.214Z,10.90
2022-12-03T11:41:16.223Z,12.63
2022-12-03T11:46:11.054Z,13.13
2022-12-03T11:51:05.451Z,15.82
2022-12-03T11:56:09.277Z,12.05
2022-12-03T12:01:05.659Z,19.23
2022-12-03T12:06:03.059Z,15.48
2022-12-03T12:10:57.086Z,15.93
2022-12-03T12:15:51.403Z,16.15
2022-12-03T12:20:45.280Z,17.38
2022-12-03T12:25:41.024Z,19.33
2022-12-03T12:30:34.417Z,16.38
2022-12-03T12:35:29.914Z,21.75
2022-12-03T12:40:27.888Z,16.25
2022-12-03T12:45:44.838Z,17.23
2022-12-03T12:50:42.656Z,12.40
2022-12-03T12:55:37.073Z,15.60
2022-12-03T13:00:31.329Z,16.55
2022-12-03T13:05:27.878Z,14.48
2022-12-03T13:10:39.922Z,17.02
2022-12-03T13:15:53.253Z,14.23
2022-12-03T13:20:46.674Z,14.30
2022-12-03T13:26:00.567Z,13.52
2022-12-03T13:31:00.927Z,17.20
2022-12-03T13:35:55.795Z,15.48
2022-12-03T13:40:54.705Z,22.52
2022-12-03T13:45:51.149Z,14.95
2022-12-03T13:50:46.661Z,19.38
2022-12-03T13:55:45.714Z,20.63
2022-12-03T14:00:45.441Z,19.30
2022-12-03T14:05:40.407Z,18.77
2022-12-03T14:10:33.309Z,21.10
2022-12-03T14:15:27.598Z,23.33
2022-12-03T14:20:20.931Z,19.80
2022-12-03T14:25:14.422Z,20.45
2022-12-03T14:30:09.782Z,17.15
2022-12-03T14:35:08.300Z,18.48
2022-12-03T14:40:03.912Z,19.05
2022-12-03T14:44:57.495Z,48.70
2022-12-03T14:49:51.922Z,21.92
2022-12-03T14:54:46.162Z,16.92
2022-12-03T14:59:41.123Z,18.10
2022-12-03T15:04:33.851Z,16.65
2022-12-03T15:09:27.915Z,15.10
2022-12-03T15:14:22.024Z,15.02
2022-12-03T15:19:16.728Z,13.98
2022-12-03T15:24:11.261Z,14.43
2022-12-03T15:29:04.494Z,18.75
2022-12-03T15:33:58.287Z,14.85
2022-12-03T15:38:52.299Z,19.38
2022-12-03T15:43:46.476Z,13.35
2022-12-03T15:48:40.186Z,11.90
2022-12-03T15:53:34.095Z,13.20
2022-12-03T15:58:28.061Z,12.85
2022-12-03T16:03:22.565Z,12.80
2022-12-03T16:08:16.633Z,12.98
2022-12-03T16:13:10.550Z,14.23
2022-12-03T16:18:04.349Z,12.73
2022-12-03T16:22:57.934Z,14.27
2022-12-03T16:27:51.934Z,13.35
2022-12-03T16:32:45.485Z,15.35
2022-12-03T16:37:39.333Z,16.45
2022-12-03T16:42:33.199Z,13.77
2022-12-03T16:47:32.101Z,14.82
2022-12-03T16:52:27.082Z,18.65
2022-12-03T16:57:20.506Z,16.88
2022-12-03T17:02:14.733Z,12.60
2022-12-03T17:07:10.190Z,12.38
2022-12-03T17:12:03.623Z,13.45
2022-12-03T17:16:57.625Z,13.10
2022-12-03T17:21:51.549Z,13.57
2022-12-03T17:26:45.728Z,14.20
2022-12-03T17:31:55.088Z,23.85
2022-12-03T17:36:49.552Z,18.60
2022-12-03T17:41:43.697Z,16.33
2022-12-03T17:46:36.656Z,14.77
2022-12-03T17:51:30.675Z,17.08
2022-12-03T17:56:23.920Z,21.77
2022-12-03T18:01:17.941Z,17.13
2022-12-03T18:06:12.301Z,18.67
2022-12-03T18:11:07.456Z,18.10
2022-12-03T18:16:01.482Z,15.85
2022-12-03T18:20:55.630Z,15.20
2022-12-03T18:25:49.294Z,14.65
2022-12-03T18:30:47.532Z,19.08
2022-12-03T18:35:44.396Z,22.65
2022-12-03T18:40:38.387Z,125.63
2022-12-03T18:45:32.508Z,128.63
2022-12-03T18:50:25.946Z,154.38
2022-12-03T18:55:20.803Z,280.33
2022-12-03T19:00:16.550Z,203.65
2022-12-03T19:05:14.868Z,81.03
2022-12-03T19:10:11.731Z,32.38
2022-12-03T19:15:05.909Z,28.80
2022-12-03T19:19:59.890Z,21.95
2022-12-03T19:24:54.253Z,20.23
2022-12-03T19:29:50.465Z,18.08
2022-12-03T19:34:44.034Z,17.42
2022-12-03T19:39:37.726Z,17.55
2022-12-03T19:44:31.267Z,22.13
2022-12-03T19:49:25.187Z,16.50
2022-12-03T19:54:18.960Z,18.73
2022-12-03T19:59:13.711Z,21.02
2022-12-03T20:04:09.198Z,21.40
2022-12-03T20:09:18.326Z,21.73
2022-12-03T20:14:52.148Z,20.50
2022-12-03T20:19:46.578Z,31.80
2022-12-03T20:24:40.623Z,25.33
2022-12-03T20:29:34.509Z,37.05
2022-12-03T20:34:28.180Z,51.20
2022-12-03T20:39:22.242Z,38.15
2022-12-03T20:44:16.109Z,60.38
2022-12-03T20:49:10.194Z,38.22
2022-12-03T20:54:04.405Z,26.33
2022-12-03T20:58:57.903Z,30.85
2022-12-03T21:03:51.475Z,27.45
2022-12-03T21:08:46.027Z,29.05
2022-12-03T21:13:41.826Z,26.95
2022-12-03T21:18:36.341Z,24.50
2022-12-03T21:23:30.977Z,29.33
2022-12-03T21:28:25.935Z,31.40
2022-12-03T21:33:19.668Z,32.58
2022-12-03T21:38:13.697Z,31.85
2022-12-03T21:43:07.842Z,31.55
2022-12-03T21:48:01.842Z,32.53
2022-12-03T21:52:56.272Z,39.65
2022-12-03T21:57:50.796Z,32.65
2022-12-03T22:02:44.835Z,41.25
2022-12-03T22:07:39.414Z,36.25
2022-12-03T22:12:33.345Z,35.42
2022-12-03T22:17:27.821Z,48.47
2022-12-03T22:22:21.481Z,31.45
2022-12-03T22:27:16.348Z,31.00
2022-12-03T22:32:10.453Z,59.38
2022-12-03T22:37:04.879Z,90.65
2022-12-03T22:41:59.406Z,114.35
2022-12-03T22:46:52.626Z,51.03
2022-12-03T22:51:48.654Z,36.67
2022-12-03T22:56:41.247Z,28.58
2022-12-03T23:01:35.978Z,35.70
2022-12-03T23:06:30.157Z,36.80
2022-12-03T23:11:23.811Z,37.10
2022-12-03T23:16:48.980Z,37.38
2022-12-03T23:21:41.775Z,59.05
2022-12-03T23:26:37.925Z,41.28
2022-12-03T23:31:33.533Z,42.88
2022-12-03T23:36:28.489Z,55.92
2022-12-03T23:41:23.738Z,50.97
2022-12-03T23:46:20.353Z,72.30
2022-12-03T23:51:18.021Z,39.03
2022-12-03T23:56:14.383Z,27.35
